sensor_id;sensor_type;location;lat;lon;timestamp;P1;durP1;ratioP1;P2;durP2;ratioP2
20629;SDS011;17386;43.846;25.950;2023-11-21T00:01:01;9.02;;;3.85;;
20629;SDS011;17386;43.846;25.950;2023-11-21T00:05:54;8.38;;;3.97;;
20629;SDS011;17386;43.846;25.950;2023-11-21T00:08:20;11.85;;;3.80;;
20629;SDS011;17386;43.846;25.950;2023-11-21T00:10:45;7.40;;;3.28;;
20629;SDS011;17386;43.846;25.950;2023-11-21T00:13:10;10.13;;;4.13;;
20629;SDS011;17386;43.846;25.950;2023-11-21T00:15:37;7.55;;;3.90;;
20629;SDS011;17386;43.846;25.950;2023-11-21T00:18:03;7.93;;;3.60;;
20629;SDS011;17386;43.846;25.950;2023-11-21T00:20:28;6.78;;;3.38;;
20629;SDS011;17386;43.846;25.950;2023-11-21T00:22:53;8.23;;;3.53;;
20629;SDS011;17386;43.846;25.950;2023-11-21T00:25:19;10.02;;;3.83;;
20629;SDS011;17386;43.846;25.950;2023-11-21T00:27:45;10.48;;;3.88;;
20629;SDS011;17386;43.846;25.950;2023-11-21T00:30:10;9.27;;;3.67;;
20629;SDS011;17386;43.846;25.950;2023-11-21T00:32:37;5.85;;;3.28;;
20629;SDS011;17386;43.846;25.950;2023-11-21T00:35:02;7.05;;;3.50;;
20629;SDS011;17386;43.846;25.950;2023-11-21T00:37:28;6.78;;;3.63;;
20629;SDS011;17386;43.846;25.950;2023-11-21T00:39:53;7.32;;;3.20;;
20629;SDS011;17386;43.846;25.950;2023-11-21T00:42:19;8.07;;;3.75;;
20629;SDS011;17386;43.846;25.950;2023-11-21T00:44:44;7.20;;;3.53;;
20629;SDS011;17386;43.846;25.950;2023-11-21T00:47:10;7.65;;;3.65;;
20629;SDS011;17386;43.846;25.950;2023-11-21T00:49:35;7.25;;;3.70;;
20629;SDS011;17386;43.846;25.950;2023-11-21T00:52:01;7.65;;;3.70;;
20629;SDS011;17386;43.846;25.950;2023-11-21T00:54:27;7.47;;;3.63;;
20629;SDS011;17386;43.846;25.950;2023-11-21T00:56:53;8.25;;;3.63;;
20629;SDS011;17386;43.846;25.950;2023-11-21T00:59:18;7.22;;;3.58;;
20629;SDS011;17386;43.846;25.950;2023-11-21T01:01:44;7.63;;;3.03;;
20629;SDS011;17386;43.846;25.950;2023-11-21T01:04:09;11.55;;;3.92;;
20629;SDS011;17386;43.846;25.950;2023-11-21T01:06:35;6.70;;;3.60;;
20629;SDS011;17386;43.846;25.950;2023-11-21T01:09:01;9.82;;;3.83;;
20629;SDS011;17386;43.846;25.950;2023-11-21T01:11:29;6.55;;;3.40;;
20629;SDS011;17386;43.846;25.950;2023-11-21T01:13:54;12.00;;;4.20;;
20629;SDS011;17386;43.846;25.950;2023-11-21T01:16:20;12.13;;;4.82;;
20629;SDS011;17386;43.846;25.950;2023-11-21T01:18:45;9.40;;;5.07;;
20629;SDS011;17386;43.846;25.950;2023-11-21T01:21:10;9.30;;;4.43;;
20629;SDS011;17386;43.846;25.950;2023-11-21T01:23:37;8.60;;;4.07;;
20629;SDS011;17386;43.846;25.950;2023-11-21T01:26:02;6.13;;;3.20;;
20629;SDS011;17386;43.846;25.950;2023-11-21T01:28:28;6.65;;;3.15;;
20629;SDS011;17386;43.846;25.950;2023-11-21T01:30:53;9.93;;;3.40;;
20629;SDS011;17386;43.846;25.950;2023-11-21T01:33:21;9.88;;;3.95;;
20629;SDS011;17386;43.846;25.950;2023-11-21T01:35:50;11.55;;;3.70;;
20629;SDS011;17386;43.846;25.950;2023-11-21T01:38:15;7.50;;;3.40;;
20629;SDS011;17386;43.846;25.950;2023-11-21T01:40:42;7.75;;;3.90;;
20629;SDS011;17386;43.846;25.950;2023-11-21T01:43:08;11.07;;;4.78;;
20629;SDS011;17386;43.846;25.950;2023-11-21T01:45:33;7.60;;;4.18;;
20629;SDS011;17386;43.846;25.950;2023-11-21T01:47:59;9.38;;;4.13;;
20629;SDS011;17386;43.846;25.950;2023-11-21T01:50:25;8.93;;;3.50;;
20629;SDS011;17386;43.846;25.950;2023-11-21T01:52:51;6.90;;;3.60;;
20629;SDS011;17386;43.846;25.950;2023-11-21T01:55:17;9.10;;;3.13;;
20629;SDS011;17386;43.846;25.950;2023-11-21T01:57:43;7.95;;;3.30;;
20629;SDS011;17386;43.846;25.950;2023-11-21T02:00:11;6.43;;;2.92;;
20629;SDS011;17386;43.846;25.950;2023-11-21T02:02:44;5.53;;;2.97;;
20629;SDS011;17386;43.846;25.950;2023-11-21T02:05:14;5.53;;;2.85;;
20629;SDS011;17386;43.846;25.950;2023-11-21T02:07:43;6.75;;;2.85;;
20629;SDS011;17386;43.846;25.950;2023-11-21T02:10:09;6.78;;;3.42;;
20629;SDS011;17386;43.846;25.950;2023-11-21T02:12:39;5.82;;;2.30;;
20629;SDS011;17386;43.846;25.950;2023-11-21T02:15:05;7.30;;;2.75;;
20629;SDS011;17386;43.846;25.950;2023-11-21T02:17:37;8.35;;;3.22;;
20629;SDS011;17386;43.846;25.950;2023-11-21T02:20:03;5.63;;;2.80;;
20629;SDS011;17386;43.846;25.950;2023-11-21T02:22:31;7.15;;;2.65;;
20629;SDS011;17386;43.846;25.950;2023-11-21T02:24:59;6.72;;;2.85;;
20629;SDS011;17386;43.846;25.950;2023-11-21T02:27:24;6.32;;;3.15;;
20629;SDS011;17386;43.846;25.950;2023-11-21T02:29:49;7.65;;;2.70;;
20629;SDS011;17386;43.846;25.950;2023-11-21T02:32:15;4.93;;;2.42;;
20629;SDS011;17386;43.846;25.950;2023-11-21T02:34:44;7.80;;;2.85;;
20629;SDS011;17386;43.846;25.950;2023-11-21T02:37:09;5.35;;;2.47;;
20629;SDS011;17386;43.846;25.950;2023-11-21T02:39:35;5.25;;;2.45;;
20629;SDS011;17386;43.846;25.950;2023-11-21T02:42:00;5.28;;;2.60;;
20629;SDS011;17386;43.846;25.950;2023-11-21T02:44:26;8.70;;;2.88;;
20629;SDS011;17386;43.846;25.950;2023-11-21T02:46:51;9.13;;;3.15;;
20629;SDS011;17386;43.846;25.950;2023-11-21T02:49:17;8.23;;;3.25;;
20629;SDS011;17386;43.846;25.950;2023-11-21T02:51:42;10.20;;;4.32;;
20629;SDS011;17386;43.846;25.950;2023-11-21T02:54:08;8.32;;;2.92;;
20629;SDS011;17386;43.846;25.950;2023-11-21T02:56:34;6.30;;;2.92;;
20629;SDS011;17386;43.846;25.950;2023-11-21T02:59:00;6.65;;;2.75;;
20629;SDS011;17386;43.846;25.950;2023-11-21T03:01:26;6.70;;;2.85;;
20629;SDS011;17386;43.846;25.950;2023-11-21T03:03:52;4.97;;;2.75;;
20629;SDS011;17386;43.846;25.950;2023-11-21T03:06:18;7.78;;;2.40;;
20629;SDS011;17386;43.846;25.950;2023-11-21T03:08:44;8.00;;;2.83;;
20629;SDS011;17386;43.846;25.950;2023-11-21T03:11:10;5.50;;;2.30;;
20629;SDS011;17386;43.846;25.950;2023-11-21T03:13:38;6.28;;;2.72;;
20629;SDS011;17386;43.846;25.950;2023-11-21T03:16:09;5.00;;;2.95;;
20629;SDS011;17386;43.846;25.950;2023-11-21T03:18:36;5.72;;;3.00;;
20629;SDS011;17386;43.846;25.950;2023-11-21T03:21:02;6.93;;;3.00;;
20629;SDS011;17386;43.846;25.950;2023-11-21T03:23:27;7.28;;;3.03;;
20629;SDS011;17386;43.846;25.950;2023-11-21T03:25:53;6.65;;;2.90;;
20629;SDS011;17386;43.846;25.950;2023-11-21T03:28:18;7.68;;;2.90;;
20629;SDS011;17386;43.846;25.950;2023-11-21T03:30:44;9.05;;;2.60;;
20629;SDS011;17386;43.846;25.950;2023-11-21T03:33:09;7.32;;;2.88;;
20629;SDS011;17386;43.846;25.950;2023-11-21T03:35:34;6.68;;;2.53;;
20629;SDS011;17386;43.846;25.950;2023-11-21T03:38:00;7.55;;;2.60;;
20629;SDS011;17386;43.846;25.950;2023-11-21T03:40:25;9.32;;;2.80;;
20629;SDS011;17386;43.846;25.950;2023-11-21T03:42:51;7.40;;;2.45;;
20629;SDS011;17386;43.846;25.950;2023-11-21T03:45:16;5.82;;;2.30;;
20629;SDS011;17386;43.846;25.950;2023-11-21T03:47:42;6.38;;;2.70;;
20629;SDS011;17386;43.846;25.950;2023-11-21T03:50:07;7.18;;;3.10;;
20629;SDS011;17386;43.846;25.950;2023-11-21T03:52:36;7.90;;;3.00;;
20629;SDS011;17386;43.846;25.950;2023-11-21T03:55:02;8.43;;;3.40;;
20629;SDS011;17386;43.846;25.950;2023-11-21T03:57:29;8.25;;;3.65;;
20629;SDS011;17386;43.846;25.950;2023-11-21T03:59:54;8.70;;;3.42;;
20629;SDS011;17386;43.846;25.950;2023-11-21T04:02:19;5.22;;;2.90;;
20629;SDS011;17386;43.846;25.950;2023-11-21T04:04:45;6.35;;;2.60;;
20629;SDS011;17386;43.846;25.950;2023-11-21T04:07:10;7.78;;;3.38;;
20629;SDS011;17386;43.846;25.950;2023-11-21T04:09:38;10.25;;;2.95;;
20629;SDS011;17386;43.846;25.950;2023-11-21T04:12:04;9.07;;;3.67;;
20629;SDS011;17386;43.846;25.950;2023-11-21T04:14:30;7.85;;;2.58;;
20629;SDS011;17386;43.846;25.950;2023-11-21T04:16:55;8.27;;;2.90;;
20629;SDS011;17386;43.846;25.950;2023-11-21T04:19:20;8.00;;;3.30;;
20629;SDS011;17386;43.846;25.950;2023-11-21T04:21:46;6.55;;;3.30;;
20629;SDS011;17386;43.846;25.950;2023-11-21T04:24:11;7.40;;;3.05;;
20629;SDS011;17386;43.846;25.950;2023-11-21T04:26:38;10.80;;;4.22;;
20629;SDS011;17386;43.846;25.950;2023-11-21T04:29:03;9.05;;;4.35;;
20629;SDS011;17386;43.846;25.950;2023-11-21T04:31:29;8.60;;;5.00;;
20629;SDS011;17386;43.846;25.950;2023-11-21T04:33:55;9.57;;;4.57;;
20629;SDS011;17386;43.846;25.950;2023-11-21T04:36:21;8.23;;;4.00;;
20629;SDS011;17386;43.846;25.950;2023-11-21T04:38:46;9.10;;;4.35;;
20629;SDS011;17386;43.846;25.950;2023-11-21T04:41:12;9.85;;;3.33;;
20629;SDS011;17386;43.846;25.950;2023-11-21T04:43:37;5.40;;;3.08;;
20629;SDS011;17386;43.846;25.950;2023-11-21T04:46:02;8.20;;;3.17;;
20629;SDS011;17386;43.846;25.950;2023-11-21T04:48:28;6.25;;;3.22;;
20629;SDS011;17386;43.846;25.950;2023-11-21T04:50:53;6.43;;;3.58;;
20629;SDS011;17386;43.846;25.950;2023-11-21T04:53:19;7.53;;;3.38;;
20629;SDS011;17386;43.846;25.950;2023-11-21T04:55:45;6.22;;;2.97;;
20629;SDS011;17386;43.846;25.950;2023-11-21T04:58:10;9.00;;;3.35;;
20629;SDS011;17386;43.846;25.950;2023-11-21T05:00:37;6.80;;;3.05;;
20629;SDS011;17386;43.846;25.950;2023-11-21T05:03:02;7.40;;;4.35;;
20629;SDS011;17386;43.846;25.950;2023-11-21T05:05:29;7.22;;;3.20;;
20629;SDS011;17386;43.846;25.950;2023-11-21T05:07:57;7.85;;;3.80;;
20629;SDS011;17386;43.846;25.950;2023-11-21T05:10:23;9.20;;;4.03;;
20629;SDS011;17386;43.846;25.950;2023-11-21T05:12:48;7.97;;;4.03;;
20629;SDS011;17386;43.846;25.950;2023-11-21T05:15:15;10.30;;;3.55;;
20629;SDS011;17386;43.846;25.950;2023-11-21T05:17:42;9.27;;;3.92;;
20629;SDS011;17386;43.846;25.950;2023-11-21T05:20:12;9.10;;;4.07;;
20629;SDS011;17386;43.846;25.950;2023-11-21T05:22:39;11.30;;;4.57;;
20629;SDS011;17386;43.846;25.950;2023-11-21T05:25:05;7.22;;;3.53;;
20629;SDS011;17386;43.846;25.950;2023-11-21T05:27:33;7.45;;;3.78;;
20629;SDS011;17386;43.846;25.950;2023-11-21T05:29:59;8.93;;;4.13;;
20629;SDS011;17386;43.846;25.950;2023-11-21T05:32:26;9.63;;;4.38;;
20629;SDS011;17386;43.846;25.950;2023-11-21T05:34:52;9.73;;;4.10;;
20629;SDS011;17386;43.846;25.950;2023-11-21T05:37:17;7.93;;;4.25;;
20629;SDS011;17386;43.846;25.950;2023-11-21T05:39:43;13.02;;;4.38;;
20629;SDS011;17386;43.846;25.950;2023-11-21T05:42:08;8.82;;;3.83;;
20629;SDS011;17386;43.846;25.950;2023-11-21T05:44:35;11.00;;;4.32;;
20629;SDS011;17386;43.846;25.950;2023-11-21T05:47:02;11.25;;;4.20;;
20629;SDS011;17386;43.846;25.950;2023-11-21T05:49:28;12.30;;;4.13;;
20629;SDS011;17386;43.846;25.950;2023-11-21T05:51:54;11.02;;;4.53;;
20629;SDS011;17386;43.846;25.950;2023-11-21T05:54:21;10.02;;;4.18;;
20629;SDS011;17386;43.846;25.950;2023-11-21T05:56:47;12.68;;;4.38;;
20629;SDS011;17386;43.846;25.950;2023-11-21T05:59:12;19.70;;;9.20;;
20629;SDS011;17386;43.846;25.950;2023-11-21T06:01:38;24.15;;;10.82;;
20629;SDS011;17386;43.846;25.950;2023-11-21T06:04:04;23.10;;;10.70;;
20629;SDS011;17386;43.846;25.950;2023-11-21T06:06:30;22.75;;;9.70;;
20629;SDS011;17386;43.846;25.950;2023-11-21T06:08:56;25.00;;;11.75;;
20629;SDS011;17386;43.846;25.950;2023-11-21T06:11:22;19.83;;;10.38;;
20629;SDS011;17386;43.846;25.950;2023-11-21T06:13:47;15.88;;;8.57;;
20629;SDS011;17386;43.846;25.950;2023-11-21T06:16:13;20.95;;;9.45;;
20629;SDS011;17386;43.846;25.950;2023-11-21T06:18:41;17.63;;;8.13;;
20629;SDS011;17386;43.846;25.950;2023-11-21T06:21:09;11.52;;;5.63;;
20629;SDS011;17386;43.846;25.950;2023-11-21T06:23:34;14.70;;;5.40;;
20629;SDS011;17386;43.846;25.950;2023-11-21T06:26:00;11.23;;;5.32;;
20629;SDS011;17386;43.846;25.950;2023-11-21T06:28:25;11.05;;;5.80;;
20629;SDS011;17386;43.846;25.950;2023-11-21T06:30:50;13.32;;;6.18;;
20629;SDS011;17386;43.846;25.950;2023-11-21T06:33:16;21.80;;;9.82;;
20629;SDS011;17386;43.846;25.950;2023-11-21T06:35:41;19.35;;;7.50;;
20629;SDS011;17386;43.846;25.950;2023-11-21T06:38:07;14.48;;;6.60;;
20629;SDS011;17386;43.846;25.950;2023-11-21T06:40:34;13.60;;;6.30;;
20629;SDS011;17386;43.846;25.950;2023-11-21T06:42:59;23.48;;;8.55;;
20629;SDS011;17386;43.846;25.950;2023-11-21T06:45:25;19.02;;;7.45;;
20629;SDS011;17386;43.846;25.950;2023-11-21T06:47:51;25.35;;;9.45;;
20629;SDS011;17386;43.846;25.950;2023-11-21T06:50:17;15.88;;;7.53;;
20629;SDS011;17386;43.846;25.950;2023-11-21T06:52:42;19.27;;;7.78;;
20629;SDS011;17386;43.846;25.950;2023-11-21T06:55:08;22.52;;;8.38;;
20629;SDS011;17386;43.846;25.950;2023-11-21T06:57:34;21.63;;;8.82;;
20629;SDS011;17386;43.846;25.950;2023-11-21T07:00:00;20.80;;;7.82;;
20629;SDS011;17386;43.846;25.950;2023-11-21T07:02:26;26.52;;;8.05;;
20629;SDS011;17386;43.846;25.950;2023-11-21T07:04:51;16.83;;;6.65;;
20629;SDS011;17386;43.846;25.950;2023-11-21T07:07:17;15.00;;;5.40;;
20629;SDS011;17386;43.846;25.950;2023-11-21T07:09:44;12.45;;;5.25;;
20629;SDS011;17386;43.846;25.950;2023-11-21T07:12:09;10.85;;;4.95;;
20629;SDS011;17386;43.846;25.950;2023-11-21T07:14:36;11.82;;;5.60;;
20629;SDS011;17386;43.846;25.950;2023-11-21T07:17:04;11.45;;;4.45;;
20629;SDS011;17386;43.846;25.950;2023-11-21T07:19:29;11.63;;;4.32;;
20629;SDS011;17386;43.846;25.950;2023-11-21T07:21:55;18.33;;;4.90;;
20629;SDS011;17386;43.846;25.950;2023-11-21T07:24:21;12.25;;;4.45;;
20629;SDS011;17386;43.846;25.950;2023-11-21T07:26:48;12.82;;;4.40;;
20629;SDS011;17386;43.846;25.950;2023-11-21T07:29:13;9.77;;;4.25;;
20629;SDS011;17386;43.846;25.950;2023-11-21T07:31:39;9.45;;;4.07;;
20629;SDS011;17386;43.846;25.950;2023-11-21T07:34:06;12.18;;;4.82;;
20629;SDS011;17386;43.846;25.950;2023-11-21T07:36:32;11.90;;;4.40;;
20629;SDS011;17386;43.846;25.950;2023-11-21T07:38:58;12.52;;;5.35;;
20629;SDS011;17386;43.846;25.950;2023-11-21T07:41:23;16.98;;;5.80;;
20629;SDS011;17386;43.846;25.950;2023-11-21T07:43:49;10.60;;;5.70;;
20629;SDS011;17386;43.846;25.950;2023-11-21T07:46:14;15.60;;;6.53;;
20629;SDS011;17386;43.846;25.950;2023-11-21T07:48:40;14.50;;;5.45;;
20629;SDS011;17386;43.846;25.950;2023-11-21T07:51:11;16.98;;;5.07;;
20629;SDS011;17386;43.846;25.950;2023-11-21T07:53:38;7.75;;;3.15;;
20629;SDS011;17386;43.846;25.950;2023-11-21T07:56:07;9.68;;;4.22;;
20629;SDS011;17386;43.846;25.950;2023-11-21T07:58:33;9.48;;;4.70;;
20629;SDS011;17386;43.846;25.950;2023-11-21T08:00:59;9.57;;;3.95;;
20629;SDS011;17386;43.846;25.950;2023-11-21T08:03:25;8.95;;;4.38;;
20629;SDS011;17386;43.846;25.950;2023-11-21T08:05:52;10.45;;;4.75;;
20629;SDS011;17386;43.846;25.950;2023-11-21T08:08:17;11.10;;;4.45;;
20629;SDS011;17386;43.846;25.950;2023-11-21T08:10:43;17.27;;;6.97;;
20629;SDS011;17386;43.846;25.950;2023-11-21T08:13:19;8.88;;;4.40;;
20629;SDS011;17386;43.846;25.950;2023-11-21T08:15:44;13.35;;;4.47;;
20629;SDS011;17386;43.846;25.950;2023-11-21T08:18:10;8.15;;;3.78;;
20629;SDS011;17386;43.846;25.950;2023-11-21T08:20:35;7.43;;;3.88;;
20629;SDS011;17386;43.846;25.950;2023-11-21T08:23:04;13.30;;;5.32;;
20629;SDS011;17386;43.846;25.950;2023-11-21T08:25:31;8.85;;;4.30;;
20629;SDS011;17386;43.846;25.950;2023-11-21T08:27:57;9.93;;;3.88;;
20629;SDS011;17386;43.846;25.950;2023-11-21T08:30:22;8.95;;;3.97;;
20629;SDS011;17386;43.846;25.950;2023-11-21T08:32:49;9.50;;;3.80;;
20629;SDS011;17386;43.846;25.950;2023-11-21T08:35:18;10.35;;;4.53;;
20629;SDS011;17386;43.846;25.950;2023-11-21T08:37:43;11.65;;;4.43;;
20629;SDS011;17386;43.846;25.950;2023-11-21T08:40:09;9.20;;;4.38;;
20629;SDS011;17386;43.846;25.950;2023-11-21T08:42:37;10.40;;;4.70;;
20629;SDS011;17386;43.846;25.950;2023-11-21T08:45:03;8.82;;;4.32;;
20629;SDS011;17386;43.846;25.950;2023-11-21T08:47:29;12.20;;;4.88;;
20629;SDS011;17386;43.846;25.950;2023-11-21T08:49:55;10.32;;;4.93;;
20629;SDS011;17386;43.846;25.950;2023-11-21T08:52:20;11.45;;;4.78;;
20629;SDS011;17386;43.846;25.950;2023-11-21T08:54:48;9.40;;;4.13;;
20629;SDS011;17386;43.846;25.950;2023-11-21T08:57:13;9.82;;;4.15;;
20629;SDS011;17386;43.846;25.950;2023-11-21T08:59:39;8.13;;;4.47;;
20629;SDS011;17386;43.846;25.950;2023-11-21T09:02:04;10.02;;;3.92;;
20629;SDS011;17386;43.846;25.950;2023-11-21T09:04:30;7.75;;;3.80;;
20629;SDS011;17386;43.846;25.950;2023-11-21T09:06:56;17.50;;;3.72;;
20629;SDS011;17386;43.846;25.950;2023-11-21T09:09:25;8.20;;;2.97;;
20629;SDS011;17386;43.846;25.950;2023-11-21T09:11:50;8.77;;;3.22;;
20629;SDS011;17386;43.846;25.950;2023-11-21T09:14:16;8.23;;;3.13;;
20629;SDS011;17386;43.846;25.950;2023-11-21T09:16:42;11.35;;;2.60;;
20629;SDS011;17386;43.846;25.950;2023-11-21T09:19:08;7.55;;;2.72;;
20629;SDS011;17386;43.846;25.950;2023-11-21T09:21:34;6.88;;;2.45;;
20629;SDS011;17386;43.846;25.950;2023-11-21T09:23:59;5.97;;;2.20;;
20629;SDS011;17386;43.846;25.950;2023-11-21T09:26:25;3.70;;;1.90;;
20629;SDS011;17386;43.846;25.950;2023-11-21T09:28:51;6.05;;;1.95;;
20629;SDS011;17386;43.846;25.950;2023-11-21T09:31:16;7.20;;;2.17;;
20629;SDS011;17386;43.846;25.950;2023-11-21T09:33:42;7.50;;;1.80;;
20629;SDS011;17386;43.846;25.950;2023-11-21T09:36:12;3.92;;;1.67;;
20629;SDS011;17386;43.846;25.950;2023-11-21T09:38:41;4.65;;;1.80;;
20629;SDS011;17386;43.846;25.950;2023-11-21T09:41:09;4.68;;;1.63;;
20629;SDS011;17386;43.846;25.950;2023-11-21T09:43:42;6.72;;;1.80;;
20629;SDS011;17386;43.846;25.950;2023-11-21T09:46:12;4.22;;;1.65;;
20629;SDS011;17386;43.846;25.950;2023-11-21T09:48:44;6.18;;;2.40;;
20629;SDS011;17386;43.846;25.950;2023-11-21T09:51:12;3.90;;;1.55;;
20629;SDS011;17386;43.846;25.950;2023-11-21T09:53:39;3.67;;;1.35;;
20629;SDS011;17386;43.846;25.950;2023-11-21T09:56:09;3.90;;;1.70;;
20629;SDS011;17386;43.846;25.950;2023-11-21T09:58:35;7.13;;;1.77;;
20629;SDS011;17386;43.846;25.950;2023-11-21T10:01:01;5.20;;;2.63;;
20629;SDS011;17386;43.846;25.950;2023-11-21T10:03:28;7.22;;;2.00;;
20629;SDS011;17386;43.846;25.950;2023-11-21T10:05:53;5.88;;;1.80;;
20629;SDS011;17386;43.846;25.950;2023-11-21T10:08:24;3.38;;;1.40;;
20629;SDS011;17386;43.846;25.950;2023-11-21T10:10:53;4.50;;;1.45;;
20629;SDS011;17386;43.846;25.950;2023-11-21T10:13:20;3.88;;;1.40;;
20629;SDS011;17386;43.846;25.950;2023-11-21T10:15:50;4.15;;;1.75;;
20629;SDS011;17386;43.846;25.950;2023-11-21T10:18:16;4.13;;;2.00;;
20629;SDS011;17386;43.846;25.950;2023-11-21T10:20:42;3.72;;;1.60;;
20629;SDS011;17386;43.846;25.950;2023-11-21T10:23:09;3.47;;;1.60;;
20629;SDS011;17386;43.846;25.950;2023-11-21T10:25:36;5.75;;;1.70;;
20629;SDS011;17386;43.846;25.950;2023-11-21T10:28:03;10.23;;;2.28;;
20629;SDS011;17386;43.846;25.950;2023-11-21T10:30:35;5.78;;;1.80;;
20629;SDS011;17386;43.846;25.950;2023-11-21T10:33:03;3.38;;;1.42;;
20629;SDS011;17386;43.846;25.950;2023-11-21T10:38:26;7.07;;;2.25;;
20629;SDS011;17386;43.846;25.950;2023-11-21T10:40:54;4.28;;;1.98;;
20629;SDS011;17386;43.846;25.950;2023-11-21T10:43:20;3.63;;;1.58;;
20629;SDS011;17386;43.846;25.950;2023-11-21T10:45:50;5.65;;;1.95;;
20629;SDS011;17386;43.846;25.950;2023-11-21T10:48:15;3.63;;;1.50;;
20629;SDS011;17386;43.846;25.950;2023-11-21T10:50:42;4.22;;;1.52;;
20629;SDS011;17386;43.846;25.950;2023-11-21T10:53:11;5.18;;;1.25;;
20629;SDS011;17386;43.846;25.950;2023-11-21T10:55:37;4.30;;;1.50;;
20629;SDS011;17386;43.846;25.950;2023-11-21T10:58:04;3.53;;;1.55;;
20629;SDS011;17386;43.846;25.950;2023-11-21T11:00:31;3.65;;;1.65;;
20629;SDS011;17386;43.846;25.950;2023-11-21T11:02:58;4.38;;;1.80;;
20629;SDS011;17386;43.846;25.950;2023-11-21T11:05:24;9.35;;;1.85;;
20629;SDS011;17386;43.846;25.950;2023-11-21T11:07:52;3.13;;;1.63;;
20629;SDS011;17386;43.846;25.950;2023-11-21T11:10:26;7.90;;;1.85;;
20629;SDS011;17386;43.846;25.950;2023-11-21T11:12:54;3.15;;;1.60;;
20629;SDS011;17386;43.846;25.950;2023-11-21T11:15:21;4.38;;;1.45;;
20629;SDS011;17386;43.846;25.950;2023-11-21T11:17:46;4.45;;;1.65;;
20629;SDS011;17386;43.846;25.950;2023-11-21T11:20:16;5.57;;;1.55;;
20629;SDS011;17386;43.846;25.950;2023-11-21T11:28:04;5.82;;;1.75;;
20629;SDS011;17386;43.846;25.950;2023-11-21T11:33:15;5.85;;;1.58;;
20629;SDS011;17386;43.846;25.950;2023-11-21T11:38:51;3.13;;;1.67;;
20629;SDS011;17386;43.846;25.950;2023-11-21T11:41:24;5.13;;;1.20;;
20629;SDS011;17386;43.846;25.950;2023-11-21T11:43:57;2.20;;;1.33;;
20629;SDS011;17386;43.846;25.950;2023-11-21T11:49:07;6.63;;;1.17;;
20629;SDS011;17386;43.846;25.950;2023-11-21T11:51:33;6.10;;;1.60;;
20629;SDS011;17386;43.846;25.950;2023-11-21T11:54:00;5.85;;;1.30;;
20629;SDS011;17386;43.846;25.950;2023-11-21T11:56:30;3.60;;;1.30;;
20629;SDS011;17386;43.846;25.950;2023-11-21T11:58:59;4.13;;;1.95;;
20629;SDS011;17386;43.846;25.950;2023-11-21T12:01:28;10.98;;;3.42;;
20629;SDS011;17386;43.846;25.950;2023-11-21T12:07:00;3.22;;;1.27;;
20629;SDS011;17386;43.846;25.950;2023-11-21T12:09:28;3.53;;;1.50;;
20629;SDS011;17386;43.846;25.950;2023-11-21T12:11:55;6.85;;;1.50;;
20629;SDS011;17386;43.846;25.950;2023-11-21T12:14:24;5.47;;;2.25;;
20629;SDS011;17386;43.846;25.950;2023-11-21T12:16:50;11.88;;;5.07;;
20629;SDS011;17386;43.846;25.950;2023-11-21T12:19:16;9.35;;;2.50;;
20629;SDS011;17386;43.846;25.950;2023-11-21T12:21:42;7.60;;;2.10;;
20629;SDS011;17386;43.846;25.950;2023-11-21T12:24:09;5.85;;;2.30;;
20629;SDS011;17386;43.846;25.950;2023-11-21T12:26:35;4.45;;;2.08;;
20629;SDS011;17386;43.846;25.950;2023-11-21T12:29:03;5.78;;;1.48;;
20629;SDS011;17386;43.846;25.950;2023-11-21T12:31:29;3.72;;;1.40;;
20629;SDS011;17386;43.846;25.950;2023-11-21T12:33:55;10.68;;;2.15;;
20629;SDS011;17386;43.846;25.950;2023-11-21T12:36:22;6.38;;;2.30;;
20629;SDS011;17386;43.846;25.950;2023-11-21T12:38:48;4.53;;;2.22;;
20629;SDS011;17386;43.846;25.950;2023-11-21T12:41:15;3.13;;;1.55;;
20629;SDS011;17386;43.846;25.950;2023-11-21T12:43:42;6.15;;;1.70;;
20629;SDS011;17386;43.846;25.950;2023-11-21T12:46:09;4.65;;;2.10;;
20629;SDS011;17386;43.846;25.950;2023-11-21T12:48:38;7.65;;;2.55;;
20629;SDS011;17386;43.846;25.950;2023-11-21T12:51:13;11.18;;;6.25;;
20629;SDS011;17386;43.846;25.950;2023-11-21T12:53:39;11.10;;;5.40;;
20629;SDS011;17386;43.846;25.950;2023-11-21T12:56:06;9.20;;;3.75;;
20629;SDS011;17386;43.846;25.950;2023-11-21T12:58:38;11.00;;;3.97;;
20629;SDS011;17386;43.846;25.950;2023-11-21T13:01:04;15.25;;;6.35;;
20629;SDS011;17386;43.846;25.950;2023-11-21T13:03:36;13.77;;;5.78;;
20629;SDS011;17386;43.846;25.950;2023-11-21T13:06:02;17.42;;;7.47;;
20629;SDS011;17386;43.846;25.950;2023-11-21T13:08:30;20.40;;;7.30;;
20629;SDS011;17386;43.846;25.950;2023-11-21T13:10:57;28.50;;;8.73;;
20629;SDS011;17386;43.846;25.950;2023-11-21T13:13:24;20.55;;;7.20;;
20629;SDS011;17386;43.846;25.950;2023-11-21T13:15:53;21.67;;;7.80;;
20629;SDS011;17386;43.846;25.950;2023-11-21T13:18:25;15.73;;;7.53;;
20629;SDS011;17386;43.846;25.950;2023-11-21T13:20:52;23.95;;;7.43;;
20629;SDS011;17386;43.846;25.950;2023-11-21T13:25:45;15.70;;;6.27;;
20629;SDS011;17386;43.846;25.950;2023-11-21T13:28:13;28.02;;;9.32;;
20629;SDS011;17386;43.846;25.950;2023-11-21T13:30:40;27.70;;;8.35;;
20629;SDS011;17386;43.846;25.950;2023-11-21T13:33:07;28.80;;;9.07;;
20629;SDS011;17386;43.846;25.950;2023-11-21T13:35:35;41.50;;;12.55;;
20629;SDS011;17386;43.846;25.950;2023-11-21T13:38:12;27.98;;;8.85;;
20629;SDS011;17386;43.846;25.950;2023-11-21T13:40:39;28.35;;;8.25;;
20629;SDS011;17386;43.846;25.950;2023-11-21T13:43:15;29.83;;;9.85;;
20629;SDS011;17386;43.846;25.950;2023-11-21T13:45:43;30.23;;;8.95;;
20629;SDS011;17386;43.846;25.950;2023-11-21T13:48:11;26.90;;;8.45;;
20629;SDS011;17386;43.846;25.950;2023-11-21T13:50:47;20.40;;;8.60;;
20629;SDS011;17386;43.846;25.950;2023-11-21T13:53:45;17.67;;;6.13;;
20629;SDS011;17386;43.846;25.950;2023-11-21T13:56:14;16.27;;;5.45;;
20629;SDS011;17386;43.846;25.950;2023-11-21T13:58:44;18.45;;;5.55;;
20629;SDS011;17386;43.846;25.950;2023-11-21T14:01:15;13.65;;;3.88;;
20629;SDS011;17386;43.846;25.950;2023-11-21T14:03:56;12.73;;;4.00;;
20629;SDS011;17386;43.846;25.950;2023-11-21T14:06:38;11.85;;;3.88;;
20629;SDS011;17386;43.846;25.950;2023-11-21T14:09:22;10.60;;;3.95;;
20629;SDS011;17386;43.846;25.950;2023-11-21T14:14:17;11.73;;;4.30;;
20629;SDS011;17386;43.846;25.950;2023-11-21T14:16:43;14.55;;;4.28;;
20629;SDS011;17386;43.846;25.950;2023-11-21T14:19:09;21.35;;;4.80;;
20629;SDS011;17386;43.846;25.950;2023-11-21T14:21:41;12.57;;;4.95;;
20629;SDS011;17386;43.846;25.950;2023-11-21T14:24:09;14.60;;;4.45;;
20629;SDS011;17386;43.846;25.950;2023-11-21T14:26:37;10.27;;;3.63;;
20629;SDS011;17386;43.846;25.950;2023-11-21T14:29:05;15.85;;;4.40;;
20629;SDS011;17386;43.846;25.950;2023-11-21T14:31:31;16.35;;;5.05;;
20629;SDS011;17386;43.846;25.950;2023-11-21T14:33:57;11.68;;;5.40;;
20629;SDS011;17386;43.846;25.950;2023-11-21T14:36:22;13.30;;;4.50;;
20629;SDS011;17386;43.846;25.950;2023-11-21T14:38:49;11.98;;;4.45;;
20629;SDS011;17386;43.846;25.950;2023-11-21T14:41:14;10.98;;;4.82;;
20629;SDS011;17386;43.846;25.950;2023-11-21T14:43:40;10.98;;;4.25;;
20629;SDS011;17386;43.846;25.950;2023-11-21T14:46:06;13.02;;;3.88;;
20629;SDS011;17386;43.846;25.950;2023-11-21T14:48:35;10.20;;;4.10;;
20629;SDS011;17386;43.846;25.950;2023-11-21T14:51:13;12.85;;;4.25;;
20629;SDS011;17386;43.846;25.950;2023-11-21T14:53:53;17.73;;;5.38;;